sensor_id;sensor_type;location;lat;lon;timestamp;temperature;humidity
28905;DHT22;60848;53.884;11.446;2022-12-10T00:01:50;6.60;56.30
28905;DHT22;60848;53.884;11.446;2022-12-10T00:04:20;6.50;56.40
28905;DHT22;60848;53.884;11.446;2022-12-10T00:06:49;6.50;56.50
28905;DHT22;60848;53.884;11.446;2022-12-10T00:09:19;6.50;56.60
28905;DHT22;60848;53.884;11.446;2022-12-10T00:11:48;6.40;56.70
28905;DHT22;60848;53.884;11.446;2022-12-10T00:14:17;6.50;56.60
28905;DHT22;60848;53.884;11.446;2022-12-10T00:16:45;6.60;56.60
28905;DHT22;60848;53.884;11.446;2022-12-10T00:19:13;6.60;56.60
28905;DHT22;60848;53.884;11.446;2022-12-10T00:21:44;6.60;56.60
28905;DHT22;60848;53.884;11.446;2022-12-10T00:24:12;6.60;56.40
28905;DHT22;60848;53.884;11.446;2022-12-10T00:26:41;6.50;56.50
28905;DHT22;60848;53.884;11.446;2022-12-10T00:29:11;6.50;56.50
28905;DHT22;60848;53.884;11.446;2022-12-10T00:31:40;6.40;56.60
28905;DHT22;60848;53.884;11.446;2022-12-10T00:34:10;6.50;56.60
28905;DHT22;60848;53.884;11.446;2022-12-10T00:36:40;6.40;56.70
28905;DHT22;60848;53.884;11.446;2022-12-10T00:39:12;6.50;56.80
28905;DHT22;60848;53.884;11.446;2022-12-10T00:41:41;6.60;56.60
28905;DHT22;60848;53.884;11.446;2022-12-10T00:44:09;6.70;56.40
28905;DHT22;60848;53.884;11.446;2022-12-10T00:46:40;6.70;56.30
28905;DHT22;60848;53.884;11.446;2022-12-10T00:49:09;6.70;56.20
28905;DHT22;60848;53.884;11.446;2022-12-10T00:51:37;6.80;55.90
28905;DHT22;60848;53.884;11.446;2022-12-10T00:54:06;6.90;55.80
28905;DHT22;60848;53.884;11.446;2022-12-10T00:56:39;6.90;55.70
28905;DHT22;60848;53.884;11.446;2022-12-10T00:59:09;7.00;55.70
28905;DHT22;60848;53.884;11.446;2022-12-10T01:01:40;6.90;55.50
28905;DHT22;60848;53.884;11.446;2022-12-10T01:04:12;6.90;55.70
28905;DHT22;60848;53.884;11.446;2022-12-10T01:06:42;7.00;55.60
28905;DHT22;60848;53.884;11.446;2022-12-10T01:09:13;7.10;55.50
28905;DHT22;60848;53.884;11.446;2022-12-10T01:11:45;7.10;55.40
28905;DHT22;60848;53.884;11.446;2022-12-10T01:14:15;7.10;55.20
28905;DHT22;60848;53.884;11.446;2022-12-10T01:16:47;7.20;55.60
28905;DHT22;60848;53.884;11.446;2022-12-10T01:19:16;7.30;55.60
28905;DHT22;60848;53.884;11.446;2022-12-10T01:21:44;7.40;55.40
28905;DHT22;60848;53.884;11.446;2022-12-10T01:24:13;7.40;55.20
28905;DHT22;60848;53.884;11.446;2022-12-10T01:26:45;7.40;55.10
28905;DHT22;60848;53.884;11.446;2022-12-10T01:29:13;7.50;55.00
28905;DHT22;60848;53.884;11.446;2022-12-10T01:31:41;7.50;54.80
28905;DHT22;60848;53.884;11.446;2022-12-10T01:34:12;7.50;54.70
28905;DHT22;60848;53.884;11.446;2022-12-10T01:36:43;7.50;54.50
28905;DHT22;60848;53.884;11.446;2022-12-10T01:39:13;7.50;54.30
28905;DHT22;60848;53.884;11.446;2022-12-10T01:41:46;7.40;54.20
28905;DHT22;60848;53.884;11.446;2022-12-10T01:47:37;7.40;54.40
28905;DHT22;60848;53.884;11.446;2022-12-10T01:50:07;7.40;54.60
28905;DHT22;60848;53.884;11.446;2022-12-10T01:52:37;7.40;54.50
28905;DHT22;60848;53.884;11.446;2022-12-10T01:55:44;7.40;54.40
28905;DHT22;60848;53.884;11.446;2022-12-10T01:57:59;7.50;54.30
28905;DHT22;60848;53.884;11.446;2022-12-10T02:00:27;7.40;54.30
28905;DHT22;60848;53.884;11.446;2022-12-10T02:03:02;7.40;54.20
28905;DHT22;60848;53.884;11.446;2022-12-10T02:05:38;7.40;54.10
28905;DHT22;60848;53.884;11.446;2022-12-10T02:08:14;7.30;54.10
28905;DHT22;60848;53.884;11.446;2022-12-10T02:10:56;7.30;54.20
28905;DHT22;60848;53.884;11.446;2022-12-10T02:13:33;7.00;54.20
28905;DHT22;60848;53.884;11.446;2022-12-10T02:16:08;6.90;54.60
28905;DHT22;60848;53.884;11.446;2022-12-10T02:18:41;6.90;54.40
28905;DHT22;60848;53.884;11.446;2022-12-10T02:21:18;7.00;54.30
28905;DHT22;60848;53.884;11.446;2022-12-10T02:23:51;7.10;54.10
28905;DHT22;60848;53.884;11.446;2022-12-10T02:26:24;7.00;54.00
28905;DHT22;60848;53.884;11.446;2022-12-10T02:29:07;6.80;54.40
28905;DHT22;60848;53.884;11.446;2022-12-10T02:31:44;6.60;54.90
28905;DHT22;60848;53.884;11.446;2022-12-10T02:34:15;6.50;55.30
28905;DHT22;60848;53.884;11.446;2022-12-10T02:36:46;6.60;55.20
28905;DHT22;60848;53.884;11.446;2022-12-10T02:39:22;6.70;55.20
28905;DHT22;60848;53.884;11.446;2022-12-10T02:41:57;6.90;55.00
28905;DHT22;60848;53.884;11.446;2022-12-10T02:44:31;7.00;54.80
28905;DHT22;60848;53.884;11.446;2022-12-10T02:47:01;7.10;54.50
28905;DHT22;60848;53.884;11.446;2022-12-10T02:49:36;7.10;54.10
28905;DHT22;60848;53.884;11.446;2022-12-10T02:52:08;7.00;54.40
28905;DHT22;60848;53.884;11.446;2022-12-10T02:54:41;6.90;54.60
28905;DHT22;60848;53.884;11.446;2022-12-10T02:57:23;7.00;54.50
28905;DHT22;60848;53.884;11.446;2022-12-10T03:00:09;7.00;54.60
28905;DHT22;60848;53.884;11.446;2022-12-10T03:03:16;7.10;54.50
28905;DHT22;60848;53.884;11.446;2022-12-10T03:05:50;7.10;54.10
28905;DHT22;60848;53.884;11.446;2022-12-10T03:08:23;7.00;53.70
28905;DHT22;60848;53.884;11.446;2022-12-10T03:10:56;6.80;53.50
28905;DHT22;60848;53.884;11.446;2022-12-10T03:13:29;6.70;53.70
28905;DHT22;60848;53.884;11.446;2022-12-10T03:16:02;6.60;53.80
28905;DHT22;60848;53.884;11.446;2022-12-10T03:18:35;6.70;54.00
28905;DHT22;60848;53.884;11.446;2022-12-10T03:21:06;6.90;53.90
28905;DHT22;60848;53.884;11.446;2022-12-10T03:23:37;6.80;53.60
28905;DHT22;60848;53.884;11.446;2022-12-10T03:26:08;6.90;53.60
28905;DHT22;60848;53.884;11.446;2022-12-10T03:28:42;6.80;53.60
28905;DHT22;60848;53.884;11.446;2022-12-10T03:31:15;6.70;53.90
28905;DHT22;60848;53.884;11.446;2022-12-10T03:33:45;6.70;54.20
28905;DHT22;60848;53.884;11.446;2022-12-10T03:36:15;6.80;54.00
28905;DHT22;60848;53.884;11.446;2022-12-10T03:38:46;6.90;53.60
28905;DHT22;60848;53.884;11.446;2022-12-10T03:41:15;6.80;53.30
28905;DHT22;60848;53.884;11.446;2022-12-10T03:43:50;6.60;53.60
28905;DHT22;60848;53.884;11.446;2022-12-10T03:46:23;6.60;53.70
28905;DHT22;60848;53.884;11.446;2022-12-10T03:48:53;6.50;53.60
28905;DHT22;60848;53.884;11.446;2022-12-10T03:51:21;6.50;53.50
28905;DHT22;60848;53.884;11.446;2022-12-10T03:53:50;6.50;53.60
28905;DHT22;60848;53.884;11.446;2022-12-10T03:56:19;6.50;53.40
28905;DHT22;60848;53.884;11.446;2022-12-10T03:58:50;6.50;53.40
28905;DHT22;60848;53.884;11.446;2022-12-10T04:01:18;6.60;53.30
28905;DHT22;60848;53.884;11.446;2022-12-10T04:03:48;6.70;53.40
28905;DHT22;60848;53.884;11.446;2022-12-10T04:06:19;6.70;53.10
28905;DHT22;60848;53.884;11.446;2022-12-10T04:08:47;6.60;53.10
28905;DHT22;60848;53.884;11.446;2022-12-10T04:11:24;6.50;53.30
28905;DHT22;60848;53.884;11.446;2022-12-10T04:13:53;6.30;53.30
28905;DHT22;60848;53.884;11.446;2022-12-10T04:16:39;6.20;53.70
28905;DHT22;60848;53.884;11.446;2022-12-10T04:19:13;6.30;53.90
28905;DHT22;60848;53.884;11.446;2022-12-10T04:21:43;6.40;53.70
28905;DHT22;60848;53.884;11.446;2022-12-10T04:24:30;6.40;53.70
28905;DHT22;60848;53.884;11.446;2022-12-10T04:27:18;6.40;53.90
28905;DHT22;60848;53.884;11.446;2022-12-10T04:29:48;6.50;53.90
28905;DHT22;60848;53.884;11.446;2022-12-10T04:32:17;6.60;53.60
28905;DHT22;60848;53.884;11.446;2022-12-10T04:34:46;6.70;53.50
28905;DHT22;60848;53.884;11.446;2022-12-10T04:37:16;6.80;53.30
28905;DHT22;60848;53.884;11.446;2022-12-10T04:39:44;6.80;53.20
28905;DHT22;60848;53.884;11.446;2022-12-10T04:42:13;6.90;53.20
28905;DHT22;60848;53.884;11.446;2022-12-10T04:44:41;6.80;53.20
28905;DHT22;60848;53.884;11.446;2022-12-10T04:47:10;6.70;53.00
28905;DHT22;60848;53.884;11.446;2022-12-10T04:49:41;6.40;53.40
28905;DHT22;60848;53.884;11.446;2022-12-10T04:52:12;6.20;53.80
28905;DHT22;60848;53.884;11.446;2022-12-10T04:54:44;6.30;54.30
28905;DHT22;60848;53.884;11.446;2022-12-10T04:57:14;6.40;54.00
28905;DHT22;60848;53.884;11.446;2022-12-10T04:59:43;6.60;54.10
28905;DHT22;60848;53.884;11.446;2022-12-10T05:02:11;6.70;53.80
28905;DHT22;60848;53.884;11.446;2022-12-10T05:04:39;6.70;53.50
28905;DHT22;60848;53.884;11.446;2022-12-10T05:07:08;6.60;53.40
28905;DHT22;60848;53.884;11.446;2022-12-10T05:09:39;6.50;53.70
28905;DHT22;60848;53.884;11.446;2022-12-10T05:12:08;6.50;53.90
28905;DHT22;60848;53.884;11.446;2022-12-10T05:14:36;6.50;53.90
28905;DHT22;60848;53.884;11.446;2022-12-10T05:17:04;6.50;54.10
28905;DHT22;60848;53.884;11.446;2022-12-10T05:19:33;6.40;54.10
28905;DHT22;60848;53.884;11.446;2022-12-10T05:22:01;6.30;54.40
28905;DHT22;60848;53.884;11.446;2022-12-10T05:24:48;6.30;54.40
28905;DHT22;60848;53.884;11.446;2022-12-10T05:27:16;6.20;54.50
28905;DHT22;60848;53.884;11.446;2022-12-10T05:29:45;6.20;54.50
28905;DHT22;60848;53.884;11.446;2022-12-10T05:32:13;6.20;54.50
28905;DHT22;60848;53.884;11.446;2022-12-10T05:34:41;6.20;54.60
28905;DHT22;60848;53.884;11.446;2022-12-10T05:37:09;6.20;54.60
28905;DHT22;60848;53.884;11.446;2022-12-10T05:39:38;6.20;54.50
28905;DHT22;60848;53.884;11.446;2022-12-10T05:42:09;6.10;54.80
28905;DHT22;60848;53.884;11.446;2022-12-10T05:44:38;6.00;54.80
28905;DHT22;60848;53.884;11.446;2022-12-10T05:47:07;6.20;55.20
28905;DHT22;60848;53.884;11.446;2022-12-10T05:49:35;6.20;55.00
28905;DHT22;60848;53.884;11.446;2022-12-10T05:52:03;6.20;54.80
28905;DHT22;60848;53.884;11.446;2022-12-10T05:54:31;6.00;54.70
28905;DHT22;60848;53.884;11.446;2022-12-10T05:57:00;5.90;55.00
28905;DHT22;60848;53.884;11.446;2022-12-10T05:59:29;5.80;55.20
28905;DHT22;60848;53.884;11.446;2022-12-10T06:01:58;5.80;55.20
28905;DHT22;60848;53.884;11.446;2022-12-10T06:04:26;5.80;55.40
28905;DHT22;60848;53.884;11.446;2022-12-10T06:06:57;5.80;55.50
28905;DHT22;60848;53.884;11.446;2022-12-10T06:09:25;5.70;55.50
28905;DHT22;60848;53.884;11.446;2022-12-10T06:11:56;5.60;55.80
28905;DHT22;60848;53.884;11.446;2022-12-10T06:14:24;5.60;55.80
28905;DHT22;60848;53.884;11.446;2022-12-10T06:16:54;5.60;55.90
28905;DHT22;60848;53.884;11.446;2022-12-10T06:19:22;5.70;55.90
28905;DHT22;60848;53.884;11.446;2022-12-10T06:21:53;5.70;55.90
28905;DHT22;60848;53.884;11.446;2022-12-10T06:24:21;5.60;56.00
28905;DHT22;60848;53.884;11.446;2022-12-10T06:26:50;5.70;55.90
28905;DHT22;60848;53.884;11.446;2022-12-10T06:29:22;5.80;55.80
28905;DHT22;60848;53.884;11.446;2022-12-10T06:31:50;6.00;55.60
28905;DHT22;60848;53.884;11.446;2022-12-10T06:34:23;6.00;55.20
28905;DHT22;60848;53.884;11.446;2022-12-10T06:36:53;6.00;54.70
28905;DHT22;60848;53.884;11.446;2022-12-10T06:39:21;6.10;54.50
28905;DHT22;60848;53.884;11.446;2022-12-10T06:41:49;6.20;54.40
28905;DHT22;60848;53.884;11.446;2022-12-10T06:44:24;6.30;54.30
28905;DHT22;60848;53.884;11.446;2022-12-10T06:46:52;6.20;54.00
28905;DHT22;60848;53.884;11.446;2022-12-10T06:49:22;6.20;53.80
28905;DHT22;60848;53.884;11.446;2022-12-10T06:51:51;6.00;53.90
28905;DHT22;60848;53.884;11.446;2022-12-10T06:54:21;5.80;53.90
28905;DHT22;60848;53.884;11.446;2022-12-10T06:56:49;5.70;54.20
28905;DHT22;60848;53.884;11.446;2022-12-10T06:59:18;5.70;54.60
28905;DHT22;60848;53.884;11.446;2022-12-10T07:01:47;5.70;54.70
28905;DHT22;60848;53.884;11.446;2022-12-10T07:04:16;5.90;54.70
28905;DHT22;60848;53.884;11.446;2022-12-10T07:06:46;6.00;54.40
28905;DHT22;60848;53.884;11.446;2022-12-10T07:09:14;5.90;54.10
28905;DHT22;60848;53.884;11.446;2022-12-10T07:11:43;5.80;54.40
28905;DHT22;60848;53.884;11.446;2022-12-10T07:14:14;5.80;54.70
28905;DHT22;60848;53.884;11.446;2022-12-10T07:16:43;5.70;55.00
28905;DHT22;60848;53.884;11.446;2022-12-10T07:19:12;5.70;55.00
28905;DHT22;60848;53.884;11.446;2022-12-10T07:21:42;5.70;55.10
28905;DHT22;60848;53.884;11.446;2022-12-10T07:24:14;5.60;55.10
28905;DHT22;60848;53.884;11.446;2022-12-10T07:26:45;5.70;55.10
28905;DHT22;60848;53.884;11.446;2022-12-10T07:29:16;5.60;54.90
28905;DHT22;60848;53.884;11.446;2022-12-10T07:31:48;5.50;54.90
28905;DHT22;60848;53.884;11.446;2022-12-10T07:34:16;5.40;55.60
28905;DHT22;60848;53.884;11.446;2022-12-10T07:36:45;5.50;55.60
28905;DHT22;60848;53.884;11.446;2022-12-10T07:39:15;5.40;55.20
28905;DHT22;60848;53.884;11.446;2022-12-10T07:41:46;5.30;55.30
28905;DHT22;60848;53.884;11.446;2022-12-10T07:44:17;5.30;55.20
28905;DHT22;60848;53.884;11.446;2022-12-10T07:46:46;5.30;55.20
28905;DHT22;60848;53.884;11.446;2022-12-10T07:49:15;5.30;55.20
28905;DHT22;60848;53.884;11.446;2022-12-10T07:51:44;5.20;55.60
28905;DHT22;60848;53.884;11.446;2022-12-10T07:54:13;5.30;55.60
28905;DHT22;60848;53.884;11.446;2022-12-10T07:56:43;5.30;55.50
28905;DHT22;60848;53.884;11.446;2022-12-10T07:59:13;5.50;55.50
28905;DHT22;60848;53.884;11.446;2022-12-10T08:01:44;5.50;55.20
28905;DHT22;60848;53.884;11.446;2022-12-10T08:04:12;5.60;55.50
28905;DHT22;60848;53.884;11.446;2022-12-10T08:06:40;5.80;55.50
28905;DHT22;60848;53.884;11.446;2022-12-10T08:09:09;5.90;55.30
28905;DHT22;60848;53.884;11.446;2022-12-10T08:11:38;5.90;54.70
28905;DHT22;60848;53.884;11.446;2022-12-10T08:14:08;5.80;54.40
28905;DHT22;60848;53.884;11.446;2022-12-10T08:16:36;5.80;54.50
28905;DHT22;60848;53.884;11.446;2022-12-10T08:19:04;5.80;54.50
28905;DHT22;60848;53.884;11.446;2022-12-10T08:21:33;5.80;54.60
28905;DHT22;60848;53.884;11.446;2022-12-10T08:24:01;5.80;54.50
28905;DHT22;60848;53.884;11.446;2022-12-10T08:26:31;5.70;54.50
28905;DHT22;60848;53.884;11.446;2022-12-10T08:29:00;5.60;55.20
28905;DHT22;60848;53.884;11.446;2022-12-10T08:31:30;5.70;54.80
28905;DHT22;60848;53.884;11.446;2022-12-10T08:34:04;5.60;54.50
28905;DHT22;60848;53.884;11.446;2022-12-10T08:36:33;5.60;54.50
28905;DHT22;60848;53.884;11.446;2022-12-10T08:39:04;5.60;54.50
28905;DHT22;60848;53.884;11.446;2022-12-10T08:41:32;5.60;54.50
28905;DHT22;60848;53.884;11.446;2022-12-10T08:44:00;5.60;54.70
28905;DHT22;60848;53.884;11.446;2022-12-10T08:46:30;5.60;54.70
28905;DHT22;60848;53.884;11.446;2022-12-10T08:48:58;5.60;54.60
28905;DHT22;60848;53.884;11.446;2022-12-10T08:51:27;5.50;54.80
28905;DHT22;60848;53.884;11.446;2022-12-10T08:53:55;5.40;54.80
28905;DHT22;60848;53.884;11.446;2022-12-10T08:56:26;5.30;54.80
28905;DHT22;60848;53.884;11.446;2022-12-10T08:58:56;5.30;55.20
28905;DHT22;60848;53.884;11.446;2022-12-10T09:01:25;5.30;54.90
28905;DHT22;60848;53.884;11.446;2022-12-10T09:03:54;5.20;55.10
28905;DHT22;60848;53.884;11.446;2022-12-10T09:06:24;5.20;54.90
28905;DHT22;60848;53.884;11.446;2022-12-10T09:08:53;5.10;54.70
28905;DHT22;60848;53.884;11.446;2022-12-10T09:11:25;4.90;54.90
28905;DHT22;60848;53.884;11.446;2022-12-10T09:13:54;4.80;55.40
28905;DHT22;60848;53.884;11.446;2022-12-10T09:16:28;4.90;55.40
28905;DHT22;60848;53.884;11.446;2022-12-10T09:18:58;4.90;55.00
28905;DHT22;60848;53.884;11.446;2022-12-10T09:21:29;4.80;55.20
28905;DHT22;60848;53.884;11.446;2022-12-10T09:23:58;4.70;55.40
28905;DHT22;60848;53.884;11.446;2022-12-10T09:26:27;4.60;55.40
28905;DHT22;60848;53.884;11.446;2022-12-10T09:28:56;4.60;55.60
28905;DHT22;60848;53.884;11.446;2022-12-10T09:31:25;4.60;56.00
28905;DHT22;60848;53.884;11.446;2022-12-10T09:33:58;4.80;56.00
28905;DHT22;60848;53.884;11.446;2022-12-10T09:36:26;4.90;55.60
28905;DHT22;60848;53.884;11.446;2022-12-10T09:39:00;5.10;55.40
28905;DHT22;60848;53.884;11.446;2022-12-10T09:44:27;5.20;55.00
28905;DHT22;60848;53.884;11.446;2022-12-10T09:46:58;5.30;55.00
28905;DHT22;60848;53.884;11.446;2022-12-10T09:49:37;5.40;54.60
28905;DHT22;60848;53.884;11.446;2022-12-10T09:52:11;5.10;54.20
28905;DHT22;60848;53.884;11.446;2022-12-10T09:54:44;5.00;54.50
28905;DHT22;60848;53.884;11.446;2022-12-10T09:57:21;5.00;54.60
28905;DHT22;60848;53.884;11.446;2022-12-10T09:59:51;5.00;54.70
28905;DHT22;60848;53.884;11.446;2022-12-10T10:02:22;5.00;54.50
28905;DHT22;60848;53.884;11.446;2022-12-10T10:05:01;5.00;54.60
28905;DHT22;60848;53.884;11.446;2022-12-10T10:07:36;5.10;54.60
28905;DHT22;60848;53.884;11.446;2022-12-10T10:10:06;5.20;54.50
28905;DHT22;60848;53.884;11.446;2022-12-10T10:12:37;5.30;54.50
28905;DHT22;60848;53.884;11.446;2022-12-10T10:15:14;5.40;54.30
28905;DHT22;60848;53.884;11.446;2022-12-10T10:17:46;5.30;54.00
28905;DHT22;60848;53.884;11.446;2022-12-10T10:20:17;5.20;54.20
28905;DHT22;60848;53.884;11.446;2022-12-10T10:22:46;5.20;54.30
28905;DHT22;60848;53.884;11.446;2022-12-10T10:25:18;5.10;54.20
28905;DHT22;60848;53.884;11.446;2022-12-10T10:27:46;5.00;54.40
28905;DHT22;60848;53.884;11.446;2022-12-10T10:30:17;5.00;54.40
28905;DHT22;60848;53.884;11.446;2022-12-10T10:32:48;5.00;54.40
28905;DHT22;60848;53.884;11.446;2022-12-10T10:35:28;5.00;54.40
28905;DHT22;60848;53.884;11.446;2022-12-10T10:37:59;5.00;54.50
28905;DHT22;60848;53.884;11.446;2022-12-10T10:40:31;5.10;54.60
28905;DHT22;60848;53.884;11.446;2022-12-10T10:43:00;5.20;54.50
28905;DHT22;60848;53.884;11.446;2022-12-10T10:45:39;5.30;54.40
28905;DHT22;60848;53.884;11.446;2022-12-10T10:48:12;5.20;54.30
28905;DHT22;60848;53.884;11.446;2022-12-10T10:50:48;5.10;54.40
28905;DHT22;60848;53.884;11.446;2022-12-10T10:53:41;5.10;54.70
28905;DHT22;60848;53.884;11.446;2022-12-10T10:56:13;5.10;54.80
28905;DHT22;60848;53.884;11.446;2022-12-10T10:58:51;5.10;54.90
28905;DHT22;60848;53.884;11.446;2022-12-10T11:01:21;5.30;54.70
28905;DHT22;60848;53.884;11.446;2022-12-10T11:03:55;5.10;54.80
28905;DHT22;60848;53.884;11.446;2022-12-10T11:06:25;5.00;55.40
28905;DHT22;60848;53.884;11.446;2022-12-10T11:08:57;4.80;55.10
28905;DHT22;60848;53.884;11.446;2022-12-10T11:11:32;4.70;55.40
28905;DHT22;60848;53.884;11.446;2022-12-10T11:14:15;4.80;55.40
28905;DHT22;60848;53.884;11.446;2022-12-10T11:16:43;4.80;55.10
28905;DHT22;60848;53.884;11.446;2022-12-10T11:19:19;4.70;55.20
28905;DHT22;60848;53.884;11.446;2022-12-10T11:21:49;4.80;55.90
28905;DHT22;60848;53.884;11.446;2022-12-10T11:24:20;5.00;55.60
28905;DHT22;60848;53.884;11.446;2022-12-10T11:26:59;5.00;55.40
28905;DHT22;60848;53.884;11.446;2022-12-10T11:29:44;5.00;55.20
28905;DHT22;60848;53.884;11.446;2022-12-10T11:32:30;4.90;55.40
28905;DHT22;60848;53.884;11.446;2022-12-10T11:35:11;4.90;55.30
28905;DHT22;60848;53.884;11.446;2022-12-10T11:37:49;5.10;55.20
28905;DHT22;60848;53.884;11.446;2022-12-10T11:40:36;5.20;54.90
28905;DHT22;60848;53.884;11.446;2022-12-10T11:43:29;5.10;54.70
28905;DHT22;60848;53.884;11.446;2022-12-10T11:46:02;5.00;54.50
28905;DHT22;60848;53.884;11.446;2022-12-10T11:48:44;5.00;54.70
28905;DHT22;60848;53.884;11.446;2022-12-10T11:51:19;5.00;54.60
28905;DHT22;60848;53.884;11.446;2022-12-10T11:54:05;5.10;54.70
28905;DHT22;60848;53.884;11.446;2022-12-10T11:56:38;5.20;54.60
28905;DHT22;60848;53.884;11.446;2022-12-10T11:59:23;5.30;54.70
28905;DHT22;60848;53.884;11.446;2022-12-10T12:05:27;5.50;53.90
28905;DHT22;60848;53.884;11.446;2022-12-10T12:08:07;5.30;53.90
28905;DHT22;60848;53.884;11.446;2022-12-10T12:10:54;5.40;54.20
28905;DHT22;60848;53.884;11.446;2022-12-10T12:13:28;5.30;54.10
28905;DHT22;60848;53.884;11.446;2022-12-10T12:16:02;5.40;54.00
28905;DHT22;60848;53.884;11.446;2022-12-10T12:18:39;5.40;53.70
28905;DHT22;60848;53.884;11.446;2022-12-10T12:21:11;5.30;53.70
28905;DHT22;60848;53.884;11.446;2022-12-10T12:23:46;5.40;53.70
28905;DHT22;60848;53.884;11.446;2022-12-10T12:26:20;5.40;53.60
28905;DHT22;60848;53.884;11.446;2022-12-10T12:28:53;5.50;53.40
28905;DHT22;60848;53.884;11.446;2022-12-10T12:31:29;5.60;53.40
28905;DHT22;60848;53.884;11.446;2022-12-10T12:34:03;5.70;53.30
28905;DHT22;60848;53.884;11.446;2022-12-10T12:36:33;5.60;53.20
28905;DHT22;60848;53.884;11.446;2022-12-10T12:39:10;5.50;53.40
28905;DHT22;60848;53.884;11.446;2022-12-10T12:41:50;5.40;53.40
28905;DHT22;60848;53.884;11.446;2022-12-10T12:44:32;5.30;53.60
28905;DHT22;60848;53.884;11.446;2022-12-10T12:47:19;5.40;53.70
28905;DHT22;60848;53.884;11.446;2022-12-10T12:49:49;5.40;53.50
28905;DHT22;60848;53.884;11.446;2022-12-10T12:52:29;5.60;53.40
28905;DHT22;60848;53.884;11.446;2022-12-10T12:55:09;5.60;53.30
28905;DHT22;60848;53.884;11.446;2022-12-10T12:57:46;5.60;53.00
28905;DHT22;60848;53.884;11.446;2022-12-10T13:00:22;5.60;53.00
28905;DHT22;60848;53.884;11.446;2022-12-10T13:02:59;5.60;52.80
28905;DHT22;60848;53.884;11.446;2022-12-10T13:05:32;5.70;52.80
28905;DHT22;60848;53.884;11.446;2022-12-10T13:08:24;5.80;52.80
28905;DHT22;60848;53.884;11.446;2022-12-10T13:10:57;5.80;52.60
28905;DHT22;60848;53.884;11.446;2022-12-10T13:13:31;5.70;52.70
28905;DHT22;60848;53.884;11.446;2022-12-10T13:16:34;5.70;52.80
28905;DHT22;60848;53.884;11.446;2022-12-10T13:19:24;5.70;52.70
28905;DHT22;60848;53.884;11.446;2022-12-10T13:22:05;5.50;52.90
28905;DHT22;60848;53.884;11.446;2022-12-10T13:24:46;5.30;52.90
28905;DHT22;60848;53.884;11.446;2022-12-10T13:27:16;5.30;52.90
28905;DHT22;60848;53.884;11.446;2022-12-10T13:29:54;5.40;52.80
28905;DHT22;60848;53.884;11.446;2022-12-10T13:32:24;5.40;52.80
28905;DHT22;60848;53.884;11.446;2022-12-10T13:35:26;5.50;52.80
28905;DHT22;60848;53.884;11.446;2022-12-10T13:37:57;5.50;52.60
28905;DHT22;60848;53.884;11.446;2022-12-10T13:40:40;5.50;52.60
28905;DHT22;60848;53.884;11.446;2022-12-10T13:43:29;5.50;52.50
28905;DHT22;60848;53.884;11.446;2022-12-10T13:46:24;5.50;52.30
28905;DHT22;60848;53.884;11.446;2022-12-10T13:48:52;5.50;52.20
28905;DHT22;60848;53.884;11.446;2022-12-10T13:54:29;5.50;52.10
28905;DHT22;60848;53.884;11.446;2022-12-10T13:57:10;5.50;52.20
28905;DHT22;60848;53.884;11.446;2022-12-10T13:59:45;5.50;52.00
28905;DHT22;60848;53.884;11.446;2022-12-10T14:05:42;5.60;52.10
28905;DHT22;60848;53.884;11.446;2022-12-10T14:08:15;5.50;51.90
28905;DHT22;60848;53.884;11.446;2022-12-10T14:10:45;5.30;52.00
28905;DHT22;60848;53.884;11.446;2022-12-10T14:13:16;5.20;52.30
28905;DHT22;60848;53.884;11.446;2022-12-10T14:15:51;5.20;52.50
28905;DHT22;60848;53.884;11.446;2022-12-10T14:18:23;5.20;52.50
28905;DHT22;60848;53.884;11.446;2022-12-10T14:20:53;5.10;52.60
28905;DHT22;60848;53.884;11.446;2022-12-10T14:23:26;5.10;52.70
28905;DHT22;60848;53.884;11.446;2022-12-10T14:26:06;5.20;52.90
28905;DHT22;60848;53.884;11.446;2022-12-10T14:28:39;5.20;52.80
28905;DHT22;60848;53.884;11.446;2022-12-10T14:31:13;5.20;52.90
28905;DHT22;60848;53.884;11.446;2022-12-10T14:33:46;5.30;52.80
28905;DHT22;60848;53.884;11.446;2022-12-10T14:36:26;5.30;52.70
28905;DHT22;60848;53.884;11.446;2022-12-10T14:38:58;5.30;52.60
28905;DHT22;60848;53.884;11.446;2022-12-10T14:41:30;5.30;52.70
28905;DHT22;60848;53.884;11.446;2022-12-10T14:44:08;5.20;52.70
28905;DHT22;60848;53.884;11.446;2022-12-10T14:46:39;5.10;52.80
28905;DHT22;60848;53.884;11.446;2022-12-10T14:49:15;5.10;53.00
28905;DHT22;60848;53.884;11.446;2022-12-10T14:51:43;5.20;53.00
28905;DHT22;60848;53.884;11.446;2022-12-10T14:54:27;5.30;52.80
28905;DHT22;60848;53.884;11.446;2022-12-10T14:56:56;5.20;52.90
28905;DHT22;60848;53.884;11.446;2022-12-10T14:59:27;5.20;53.00
28905;DHT22;60848;53.884;11.446;2022-12-10T15:02:00;5.30;53.00
28905;DHT22;60848;53.884;11.446;2022-12-10T15:04:41;5.40;52.90
28905;DHT22;60848;53.884;11.446;2022-12-10T15:07:14;5.50;52.70
28905;DHT22;60848;53.884;11.446;2022-12-10T15:09:46;5.60;52.50
28905;DHT22;60848;53.884;11.446;2022-12-10T15:12:24;5.60;52.50
28905;DHT22;60848;53.884;11.446;2022-12-10T15:14:55;5.70;52.40
28905;DHT22;60848;53.884;11.446;2022-12-10T15:17:39;5.70;52.30
28905;DHT22;60848;53.884;11.446;2022-12-10T15:20:21;5.70;52.30
28905;DHT22;60848;53.884;11.446;2022-12-10T15:22:51;5.50;52.40
28905;DHT22;60848;53.884;11.446;2022-12-10T15:25:23;5.60;52.60
28905;DHT22;60848;53.884;11.446;2022-12-10T15:27:56;5.60;52.50
28905;DHT22;60848;53.884;11.446;2022-12-10T15:30:36;5.70;52.40
28905;DHT22;60848;53.884;11.446;2022-12-10T15:33:27;5.70;52.30
28905;DHT22;60848;53.884;11.446;2022-12-10T15:36:01;5.70;52.30
28905;DHT22;60848;53.884;11.446;2022-12-10T15:38:30;5.70;52.20
28905;DHT22;60848;53.884;11.446;2022-12-10T15:41:20;5.80;52.10
28905;DHT22;60848;53.884;11.446;2022-12-10T15:43:58;5.60;52.10
28905;DHT22;60848;53.884;11.446;2022-12-10T15:46:26;5.50;52.30
28905;DHT22;60848;53.884;11.446;2022-12-10T15:48:55;5.40;52.50
28905;DHT22;60848;53.884;11.446;2022-12-10T15:51:25;5.30;53.20
28905;DHT22;60848;53.884;11.446;2022-12-10T15:53:53;5.30;52.60
28905;DHT22;60848;53.884;11.446;2022-12-10T15:56:22;5.40;52.70
28905;DHT22;60848;53.884;11.446;2022-12-10T15:58:50;5.40;52.60
28905;DHT22;60848;53.884;11.446;2022-12-10T16:01:19;5.40;52.50
28905;DHT22;60848;53.884;11.446;2022-12-10T16:03:50;5.40;52.50
28905;DHT22;60848;53.884;11.446;2022-12-10T16:06:18;5.40;52.50
28905;DHT22;60848;53.884;11.446;2022-12-10T16:08:50;5.50;52.40
28905;DHT22;60848;53.884;11.446;2022-12-10T16:11:19;5.40;52.20
28905;DHT22;60848;53.884;11.446;2022-12-10T16:13:50;5.20;52.50
28905;DHT22;60848;53.884;11.446;2022-12-10T16:16:20;5.20;52.70
28905;DHT22;60848;53.884;11.446;2022-12-10T16:18:48;5.20;52.60
28905;DHT22;60848;53.884;11.446;2022-12-10T16:21:17;5.00;52.90